General Camara, Brazil
Current Conditions -  °F | °C
As of 7:00 PM on Monday 22 Dec 2014 (Local Time) from SBPA Reporting Station
Few Clouds Few Clouds  
Wind Chill: 73°   Ceiling: Unl
Heat Index: 73°   Visibility: 6mi
Dew Point: 55°   Wind: 15mph
Humidity: 53%   Direction: 160°SSE
Pressure: 30"   Gusts: NA
Location:  29.91°S, 51.76°W
Report Text: SBPA 222100Z 16013KT 9999 FEW040 23/13 Q1016
Loading
Personal Weather Stations






























Interactive Weather Map New forecast layout! Learn more

10-Day Weather Forecast

Advertisements
Track Severe Weather on mobile